Time;durP1;ratioP1;P1;durP2;ratioP2;P2;SDS_P1;SDS_P2;PMS_P1;PMS_P2;Temp;Humidity;BMP_temperature;BMP_pressure;BME280_temperature;BME280_humidity;BME280_pressure;Samples;Min_cycle;Max_cycle;Signal;HPM_P1;HPM_P2
2023/01/18 00:02:00;;;;;;;65.23;32.30;;;;;;;-2.93;88.61;98740.91;5114781;28;20185;-68
2023/01/18 00:04:26;;;;;;;63.17;31.13;;;;;;;-3.00;88.45;98738.56;5114419;28;20426;-68
2023/01/18 00:06:53;;;;;;;73.33;32.30;;;;;;;-3.04;89.01;98738.78;5114317;28;20520;-68
2023/01/18 00:09:19;;;;;;;71.27;33.63;;;;;;;-3.04;89.08;98739.66;5114011;28;20467;-68
2023/01/18 00:11:47;;;;;;;70.37;32.13;;;;;;;-3.03;89.26;98738.72;5114053;28;20435;-68
2023/01/18 00:14:13;;;;;;;66.20;31.53;;;;;;;-2.99;88.55;98744.69;5113995;28;20193;-68
2023/01/18 00:16:40;;;;;;;63.40;32.33;;;;;;;-2.98;89.46;98737.66;5113997;28;20196;-68
2023/01/18 00:19:11;;;;;;;69.97;35.60;;;;;;;-2.98;89.44;98741.13;5114156;28;20445;-68
2023/01/18 00:21:39;;;;;;;70.80;32.73;;;;;;;-3.01;89.87;98742.13;5113943;28;20406;-68
2023/01/18 00:24:09;;;;;;;61.00;30.23;;;;;;;-3.18;89.04;98736.00;5113737;28;20203;-68
2023/01/18 00:26:36;;;;;;;65.23;30.47;;;;;;;-3.33;88.09;98740.19;5114170;28;20173;-68
2023/01/18 00:29:03;;;;;;;69.83;33.20;;;;;;;-3.28;88.58;98751.28;5113697;28;20300;-68
2023/01/18 00:31:30;;;;;;;76.77;31.90;;;;;;;-3.27;89.11;98747.78;5113813;28;20480;-68
2023/01/18 00:33:57;;;;;;;76.27;33.73;;;;;;;-3.34;88.46;98739.34;5113788;28;20482;-68
2023/01/18 00:36:23;;;;;;;69.03;32.73;;;;;;;-3.29;89.78;98741.75;5113711;28;20432;-68
2023/01/18 00:38:50;;;;;;;91.50;36.70;;;;;;;-3.26;89.62;98742.44;5113576;28;20444;-68
2023/01/18 00:41:17;;;;;;;77.07;34.03;;;;;;;-3.27;89.74;98742.53;5114376;28;21051;-68
2023/01/18 00:43:44;;;;;;;66.20;33.13;;;;;;;-3.22;89.26;98745.78;5113654;28;20430;-68
2023/01/18 00:46:13;;;;;;;67.50;31.37;;;;;;;-3.26;90.30;98755.53;5113906;28;20189;-68
2023/01/18 00:48:40;;;;;;;78.00;31.37;;;;;;;-3.29;89.20;98750.44;5113763;28;20571;-68
2023/01/18 00:51:11;;;;;;;71.63;34.90;;;;;;;-3.29;89.98;98760.91;5114197;28;20980;-68
2023/01/18 00:53:39;;;;;;;69.77;32.27;;;;;;;-3.37;90.12;98755.22;5114071;28;20419;-68
2023/01/18 00:56:07;;;;;;;67.70;32.80;;;;;;;-3.39;89.74;98762.28;5114106;28;20461;-68
2023/01/18 00:58:34;;;;;;;73.00;36.17;;;;;;;-3.35;89.29;98762.97;5114308;28;20197;-68
2023/01/18 01:01:00;;;;;;;72.20;33.53;;;;;;;-3.37;88.16;98760.44;5113474;28;20426;-68
2023/01/18 01:03:26;;;;;;;72.53;33.83;;;;;;;-3.34;89.59;98762.91;5113726;28;20436;-68
2023/01/18 01:08:38;;;;;;;83.80;34.87;;;;;;;-3.34;90.21;98767.31;5115192;28;20209;-68
2023/01/18 01:11:10;;;;;;;76.90;32.83;;;;;;;-3.38;89.00;98760.50;5117484;28;20425;-68
2023/01/18 01:27:22;;;;;;;80.30;36.83;;;;;;;-3.34;90.18;98775.16;5117293;28;20489;-68
2023/01/18 01:29:50;;;;;;;70.07;33.17;;;;;;;-3.35;90.09;98774.31;5117042;28;20217;-68
2023/01/18 01:32:16;;;;;;;69.07;35.20;;;;;;;-3.34;88.43;98780.38;5117066;28;20189;-68
2023/01/18 01:34:43;;;;;;;68.70;32.67;;;;;;;-3.37;90.02;98775.31;5117276;28;20185;-68
2023/01/18 01:37:09;;;;;;;73.10;34.67;;;;;;;-3.40;88.51;98789.34;5116926;28;20951;-67
2023/01/18 01:39:36;;;;;;;63.80;30.83;;;;;;;-3.37;89.27;98783.16;5116968;28;20439;-67
2023/01/18 01:42:02;;;;;;;71.30;32.30;;;;;;;-3.46;88.63;98790.50;5117127;28;20807;-67
2023/01/18 01:44:33;;;;;;;60.80;30.93;;;;;;;-3.46;87.93;98795.72;5117160;28;20430;-67
2023/01/18 01:47:08;;;;;;;60.13;29.30;;;;;;;-3.51;88.02;98796.88;5116722;28;20946;-67
2023/01/18 01:49:41;;;;;;;67.33;30.30;;;;;;;-3.57;90.08;98797.13;5117023;28;20528;-69
2023/01/18 01:52:10;;;;;;;60.80;29.90;;;;;;;-3.56;88.80;98798.84;5117302;28;20412;-69
2023/01/18 01:54:42;;;;;;;57.50;28.53;;;;;;;-3.62;88.29;98802.56;5117237;28;20422;-68
2023/01/18 01:57:17;;;;;;;56.90;30.67;;;;;;;-3.67;88.80;98794.94;5116530;28;20447;-67
2023/01/18 01:59:51;;;;;;;58.80;31.37;;;;;;;-3.70;88.38;98789.84;5116880;28;20405;-68
2023/01/18 02:02:18;;;;;;;62.83;28.77;;;;;;;-3.67;89.20;98796.69;5116885;28;20779;-68
2023/01/18 02:04:45;;;;;;;69.43;31.30;;;;;;;-3.70;88.16;98789.00;5116502;28;20480;-68
2023/01/18 02:07:12;;;;;;;53.43;29.33;;;;;;;-3.67;88.71;98788.84;5116396;28;20449;-67
2023/01/18 02:09:38;;;;;;;59.13;30.80;;;;;;;-3.76;88.49;98795.38;5116318;28;20461;-67
2023/01/18 02:12:05;;;;;;;66.67;29.60;;;;;;;-3.75;88.75;98790.97;5116319;28;20939;-67
2023/01/18 02:14:32;;;;;;;73.43;30.53;;;;;;;-3.77;88.96;98791.03;5116867;28;20448;-69
2023/01/18 02:17:10;;;;;;;68.73;31.03;;;;;;;-3.74;88.46;98793.50;5116420;28;20433;-67
2023/01/18 02:19:51;;;;;;;80.50;31.43;;;;;;;-3.69;89.87;98796.78;5116071;28;20412;-67
2023/01/18 02:22:47;;;;;;;65.50;28.27;;;;;;;-3.72;89.62;98798.69;5116220;28;20447;-67
2023/01/18 02:25:30;;;;;;;57.60;28.13;;;;;;;-3.83;87.86;98799.19;5116389;28;20918;-67
2023/01/18 02:28:11;;;;;;;65.33;29.77;;;;;;;-3.85;87.85;98803.63;5116009;28;20447;-67
2023/01/18 02:30:48;;;;;;;53.53;29.40;;;;;;;-3.88;88.34;98812.44;5116552;28;20471;-67
2023/01/18 02:33:30;;;;;;;56.20;29.20;;;;;;;-3.93;88.66;98803.94;5116466;28;20868;-67
2023/01/18 02:36:00;;;;;;;61.67;29.00;;;;;;;-3.90;89.98;98802.97;5116193;28;20406;-67
2023/01/18 02:38:35;;;;;;;65.70;31.37;;;;;;;-3.91;89.54;98796.88;5115754;28;20452;-67
2023/01/18 02:46:29;;;;;;;73.43;30.83;;;;;;;-3.89;90.20;98813.34;5116345;28;20414;-67
2023/01/18 02:47:08;;;;;;;61.63;30.20;;;;;;;-3.81;89.44;98806.94;5115895;28;20434;-67
2023/01/18 02:49:34;;;;;;;76.53;30.30;;;;;;;-3.86;89.02;98809.75;5115814;28;20810;-67
2023/01/18 02:52:02;;;;;;;56.23;27.27;;;;;;;-3.90;90.33;98813.44;5115542;28;20432;-67
2023/01/18 02:54:31;;;;;;;62.60;27.77;;;;;;;-3.95;88.53;98815.38;5115492;28;20425;-67
2023/01/18 02:57:00;;;;;;;60.50;29.40;;;;;;;-4.01;89.28;98813.88;5115373;28;20824;-67
2023/01/18 02:59:34;;;;;;;60.17;28.87;;;;;;;-4.03;88.55;98820.09;5115396;28;20939;-67
2023/01/18 03:02:08;;;;;;;57.63;29.23;;;;;;;-4.04;89.89;98816.66;5115654;28;20416;-67
2023/01/18 03:04:53;;;;;;;60.90;29.30;;;;;;;-3.98;89.94;98818.13;5115312;28;20942;-67
2023/01/18 03:07:44;;;;;;;67.43;31.37;;;;;;;-3.97;88.77;98819.84;5115686;28;20856;-67
2023/01/18 03:10:12;;;;;;;58.97;29.47;;;;;;;-4.01;90.04;98823.50;5115671;28;20442;-67
2023/01/18 03:12:55;;;;;;;59.07;28.33;;;;;;;-4.04;89.87;98827.09;5115691;28;20436;-67
2023/01/18 03:15:46;;;;;;;69.20;29.73;;;;;;;-4.02;88.67;98829.63;5115375;28;20409;-67
2023/01/18 03:18:32;;;;;;;61.27;32.97;;;;;;;-3.98;89.65;98832.03;5115025;28;20441;-67
2023/01/18 03:21:04;;;;;;;60.50;29.67;;;;;;;-3.97;88.17;98832.91;5115257;28;20412;-67
2023/01/18 03:23:40;;;;;;;73.40;31.93;;;;;;;-4.04;89.73;98831.47;5114918;28;20447;-67
2023/01/18 03:26:09;;;;;;;69.30;30.67;;;;;;;-4.06;89.05;98834.16;5115450;28;20415;-67
2023/01/18 03:35:06;;;;;;;61.70;30.60;;;;;;;-4.00;89.21;98835.63;5114712;28;20438;-67
2023/01/18 03:37:40;;;;;;;56.77;28.23;;;;;;;-4.06;90.42;98836.75;5114534;28;20477;-67
2023/01/18 03:40:14;;;;;;;72.93;30.77;;;;;;;-4.03;89.84;98847.09;5115222;28;20409;-67
2023/01/18 03:42:49;;;;;;;53.87;28.50;;;;;;;-4.07;89.16;98853.34;5114585;28;20489;-67
2023/01/18 03:45:24;;;;;;;69.80;31.97;;;;;;;-4.04;89.91;98848.00;5115110;28;20898;-67
2023/01/18 03:47:51;;;;;;;65.47;30.17;;;;;;;-3.99;90.17;98853.03;5114594;28;20817;-68
2023/01/18 03:50:46;;;;;;;68.57;32.13;;;;;;;-4.00;89.21;98849.56;5114361;28;20463;-68
2023/01/18 03:53:19;;;;;;;59.60;31.00;;;;;;;-3.93;89.17;98860.59;5114765;28;20410;-68
2023/01/18 03:55:52;;;;;;;57.50;30.60;;;;;;;-3.91;89.00;98858.78;5114383;28;20420;-68
2023/01/18 03:58:24;;;;;;;62.37;29.60;;;;;;;-3.95;89.61;98857.19;5114815;28;20456;-67
2023/01/18 04:00:52;;;;;;;58.53;30.37;;;;;;;-3.96;90.06;98855.50;5114496;28;20414;-67
2023/01/18 04:03:18;;;;;;;50.13;28.57;;;;;;;-3.91;90.37;98862.22;5114429;28;20880;-67
2023/01/18 04:05:45;;;;;;;55.93;28.43;;;;;;;-3.90;89.07;98865.72;5114736;28;20431;-67
2023/01/18 04:08:11;;;;;;;51.33;25.37;;;;;;;-3.96;89.70;98869.44;5114055;28;20452;-67
2023/01/18 04:10:37;;;;;;;53.73;28.07;;;;;;;-4.04;88.95;98876.75;5114014;28;20467;-67
2023/01/18 04:13:04;;;;;;;57.87;29.40;;;;;;;-4.05;88.66;98875.03;5114277;28;20431;-67
2023/01/18 04:15:30;;;;;;;51.50;27.87;;;;;;;-4.10;89.55;98883.06;5113965;28;20429;-67
2023/01/18 04:17:56;;;;;;;54.33;28.13;;;;;;;-4.10;89.08;98879.63;5113866;28;20449;-67
2023/01/18 04:20:23;;;;;;;61.10;28.90;;;;;;;-4.16;88.19;98879.91;5114158;28;20417;-67
2023/01/18 04:22:53;;;;;;;50.93;27.43;;;;;;;-4.16;89.48;98882.50;5113774;28;20455;-67
2023/01/18 04:25:20;;;;;;;50.77;26.00;;;;;;;-4.21;89.53;98887.06;5114199;28;20452;-67
2023/01/18 04:27:47;;;;;;;56.07;27.60;;;;;;;-4.18;88.69;98881.72;5113838;28;20544;-68
2023/01/18 04:30:13;;;;;;;51.27;26.90;;;;;;;-4.18;88.27;98886.94;5095714;28;20463;-68
2023/01/18 04:32:41;;;;;;;59.23;28.53;;;;;;;-4.21;89.77;98885.31;5095738;28;20433;-67
2023/01/18 04:35:08;;;;;;;47.03;27.10;;;;;;;-4.21;88.96;98890.53;5113795;28;20499;-68
2023/01/18 04:37:37;;;;;;;62.63;26.17;;;;;;;-4.27;89.36;98898.63;5114174;28;20949;-67
2023/01/18 04:40:04;;;;;;;46.70;24.57;;;;;;;-4.25;90.15;98901.19;5113972;28;20478;-67
2023/01/18 04:42:30;;;;;;;44.67;25.83;;;;;;;-4.29;88.76;98903.91;5113338;28;20433;-67
2023/01/18 04:44:58;;;;;;;54.93;26.83;;;;;;;-4.32;89.11;98900.56;5113481;28;20429;-67
2023/01/18 04:47:27;;;;;;;60.17;28.07;;;;;;;-4.29;88.68;98903.91;5113693;28;20453;-66
2023/01/18 04:49:56;;;;;;;55.17;27.73;;;;;;;-4.28;89.04;98908.22;5113814;28;20547;-67
2023/01/18 04:52:22;;;;;;;59.97;28.17;;;;;;;-4.22;89.14;98907.13;5113548;28;20435;-67
2023/01/18 04:54:49;;;;;;;60.63;27.93;;;;;;;-4.17;89.65;98905.16;5113541;28;20437;-67
2023/01/18 04:57:15;;;;;;;58.40;27.73;;;;;;;-4.17;89.24;98905.16;5113670;28;20813;-66
2023/01/18 04:59:44;;;;;;;52.53;28.23;;;;;;;-4.13;88.56;98911.13;5113514;28;20944;-66
2023/01/18 05:02:11;;;;;;;51.63;26.57;;;;;;;-4.16;88.63;98911.25;5113503;28;20464;-67
2023/01/18 05:04:38;;;;;;;51.67;26.73;;;;;;;-4.19;88.90;98912.25;5114028;28;20920;-67
2023/01/18 05:07:04;;;;;;;62.50;26.53;;;;;;;-4.17;89.34;98918.22;5113369;28;20448;-66
2023/01/18 05:09:30;;;;;;;68.13;31.23;;;;;;;-4.18;89.15;98907.84;5113866;28;20461;-66
2023/01/18 05:11:57;;;;;;;57.53;27.13;;;;;;;-4.20;89.09;98917.50;5113349;28;20429;-67
2023/01/18 05:14:23;;;;;;;47.17;26.67;;;;;;;-4.24;89.45;98915.94;5113346;28;20423;-67
2023/01/18 05:16:49;;;;;;;61.17;26.63;;;;;;;-4.23;88.78;98923.72;5113250;28;20432;-67
2023/01/18 05:19:16;;;;;;;51.60;25.33;;;;;;;-4.21;88.83;98918.41;5113305;28;20428;-67
2023/01/18 05:21:42;;;;;;;49.20;25.47;;;;;;;-4.20;89.64;98927.97;5113546;28;20427;-67
2023/01/18 05:24:08;;;;;;;58.07;27.03;;;;;;;-4.23;89.13;98920.25;5113132;28;20433;-67
2023/01/18 05:26:35;;;;;;;53.30;24.97;;;;;;;-4.25;89.97;98929.91;5113192;28;20432;-67
2023/01/18 05:29:01;;;;;;;46.13;25.73;;;;;;;-4.24;89.40;98937.69;5113148;28;20532;-67
2023/01/18 05:31:28;;;;;;;48.60;25.20;;;;;;;-4.25;90.05;98937.75;5113708;28;20406;-67
2023/01/18 05:33:57;;;;;;;49.60;25.43;;;;;;;-4.24;90.16;98942.91;5113180;28;20922;-67
2023/01/18 05:36:23;;;;;;;54.03;27.17;;;;;;;-4.26;89.68;98939.53;5095069;28;20433;-67
2023/01/18 05:38:50;;;;;;;58.60;26.27;;;;;;;-4.24;90.00;98947.28;5113034;28;20453;-67
2023/01/18 05:41:17;;;;;;;54.33;26.77;;;;;;;-4.26;89.57;98947.38;5113140;28;20421;-67
2023/01/18 05:43:43;;;;;;;52.17;26.17;;;;;;;-4.26;89.90;98952.59;5113078;28;20512;-67
2023/01/18 05:46:13;;;;;;;58.47;25.83;;;;;;;-4.29;89.05;98958.75;5113023;28;20417;-67
2023/01/18 05:48:40;;;;;;;51.20;26.20;;;;;;;-4.30;90.00;98957.06;5113236;28;20443;-67
2023/01/18 05:51:10;;;;;;;46.47;26.33;;;;;;;-4.30;89.44;98957.06;5113207;28;20542;-67
2023/01/18 05:53:37;;;;;;;56.63;25.53;;;;;;;-4.29;89.33;98965.75;5112996;28;20427;-67
2023/01/18 05:56:06;;;;;;;63.50;29.17;;;;;;;-4.27;90.38;98969.16;5115538;28;20427;-67
2023/01/18 05:58:32;;;;;;;77.83;32.30;;;;;;;-4.27;89.08;98977.00;5116991;28;20464;-68
2023/01/18 06:00:59;;;;;;;64.83;31.87;;;;;;;-4.25;90.20;98983.03;5116591;28;20557;-68
2023/01/18 06:03:25;;;;;;;62.97;31.43;;;;;;;-4.25;89.40;98987.41;5115452;28;20437;-68
2023/01/18 06:05:52;;;;;;;60.93;28.77;;;;;;;-4.21;90.33;98988.97;5116654;28;20429;-68
2023/01/18 06:08:19;;;;;;;70.40;32.40;;;;;;;-4.19;89.78;98990.63;5116630;28;20472;-67
2023/01/18 06:10:56;;;;;;;54.50;28.60;;;;;;;-4.15;88.86;98989.56;5116280;28;20469;-67
2023/01/18 06:13:26;;;;;;;51.97;26.17;;;;;;;-4.07;89.04;98994.50;5116885;28;20405;-67
2023/01/18 06:15:54;;;;;;;52.20;26.70;;;;;;;-4.12;88.41;98999.94;5116940;28;20509;-67
2023/01/18 06:18:21;;;;;;;53.63;26.63;;;;;;;-4.11;90.19;99003.38;5116192;28;20452;-66
2023/01/18 06:20:47;;;;;;;46.07;26.23;;;;;;;-4.07;89.48;99010.16;5116745;28;20512;-68
2023/01/18 06:23:14;;;;;;;45.40;26.10;;;;;;;-4.04;90.32;99007.47;5115972;28;20454;-67
2023/01/18 06:25:40;;;;;;;55.93;27.77;;;;;;;-4.07;90.52;99002.34;5116253;28;20434;-68
2023/01/18 06:28:06;;;;;;;59.93;26.53;;;;;;;-4.09;89.24;99018.09;5115942;28;20446;-66
2023/01/18 06:30:33;;;;;;;56.27;26.23;;;;;;;-4.12;89.47;99020.84;5116057;28;20464;-66
2023/01/18 06:33:05;;;;;;;43.07;25.80;;;;;;;-4.19;89.43;99016.78;5115927;28;20481;-66
2023/01/18 06:35:32;;;;;;;46.90;26.47;;;;;;;-4.22;89.09;99019.47;5116105;28;20463;-67
2023/01/18 06:37:59;;;;;;;54.97;27.83;;;;;;;-4.19;89.99;99022.00;5115962;28;20456;-66
2023/01/18 06:40:25;;;;;;;52.97;27.07;;;;;;;-4.28;89.84;99027.56;5115715;28;20428;-66
2023/01/18 06:42:52;;;;;;;48.33;26.33;;;;;;;-4.27;88.83;99024.03;5115727;28;20428;-66
2023/01/18 06:45:20;;;;;;;65.53;29.93;;;;;;;-4.27;88.67;99026.66;5115667;28;20431;-66
2023/01/18 06:47:48;;;;;;;49.20;27.20;;;;;;;-4.29;89.32;99028.47;5115987;28;20870;-66
2023/01/18 06:50:15;;;;;;;51.50;26.77;;;;;;;-4.35;89.84;99034.78;5115650;28;20453;-67
2023/01/18 06:52:42;;;;;;;54.90;27.40;;;;;;;-4.34;88.65;99035.63;5115457;28;20434;-67
2023/01/18 06:55:13;;;;;;;57.00;27.13;;;;;;;-4.32;89.08;99039.03;5115502;28;20430;-67
2023/01/18 06:57:40;;;;;;;49.17;26.83;;;;;;;-4.31;89.82;99044.22;5115683;28;20459;-67
2023/01/18 07:00:08;;;;;;;52.50;28.30;;;;;;;-4.28;89.75;99051.94;5115406;28;20917;-67
2023/01/18 07:02:35;;;;;;;54.37;27.20;;;;;;;-4.25;89.44;99052.72;5116027;28;20523;-67
2023/01/18 07:05:03;;;;;;;65.17;29.03;;;;;;;-4.24;89.17;99057.88;5115543;28;20428;-67
2023/01/18 07:07:29;;;;;;;55.57;26.57;;;;;;;-4.22;89.65;99063.06;5115171;28;20445;-66
2023/01/18 07:09:56;;;;;;;51.47;27.20;;;;;;;-4.20;89.16;99067.31;5115100;28;20504;-66
2023/01/18 07:12:22;;;;;;;52.13;28.53;;;;;;;-4.17;90.04;99061.97;5115093;28;20438;-66
2023/01/18 07:14:49;;;;;;;47.20;25.83;;;;;;;-4.13;90.30;99073.16;5115080;28;20437;-66
2023/01/18 07:17:15;;;;;;;60.17;28.10;;;;;;;-4.14;90.55;99071.44;5114937;28;20450;-66
2023/01/18 07:19:43;;;;;;;57.60;28.73;;;;;;;-4.10;90.07;99070.41;5115530;28;20440;-66
2023/01/18 07:22:09;;;;;;;50.90;27.23;;;;;;;-4.08;88.85;99073.84;5115304;28;20477;-66
2023/01/18 07:24:35;;;;;;;53.83;28.83;;;;;;;-4.00;89.55;99087.44;5115030;28;20420;-66
2023/01/18 07:27:02;;;;;;;70.13;28.30;;;;;;;-4.00;89.67;99082.22;5114785;28;20436;-66
2023/01/18 07:29:28;;;;;;;48.83;27.00;;;;;;;-3.95;89.20;99087.25;5114993;28;20435;-66
2023/01/18 07:31:55;;;;;;;56.07;29.03;;;;;;;-3.92;89.40;99087.16;5114743;28;20426;-66
2023/01/18 07:34:21;;;;;;;60.70;26.30;;;;;;;-3.87;89.27;99096.53;5114629;28;20459;-66
2023/01/18 07:36:47;;;;;;;57.43;29.37;;;;;;;-3.78;90.64;99107.50;5114628;28;20432;-67
2023/01/18 07:39:14;;;;;;;48.70;27.37;;;;;;;-3.74;90.99;99103.88;5114868;28;20435;-67
2023/01/18 07:41:40;;;;;;;50.67;28.43;;;;;;;-3.73;90.37;99100.38;5114602;28;20512;-67
2023/01/18 07:44:09;;;;;;;57.10;29.80;;;;;;;-3.70;90.10;99105.47;5114577;28;20521;-67
2023/01/18 07:46:35;;;;;;;56.97;27.93;;;;;;;-3.64;89.61;99107.81;5114480;28;20432;-67
2023/01/18 07:49:04;;;;;;;56.00;28.50;;;;;;;-3.57;90.01;99111.88;5114371;28;20974;-68
2023/01/18 07:51:32;;;;;;;57.47;28.93;;;;;;;-3.59;89.38;99111.13;5114617;28;20543;-68
2023/01/18 07:53:58;;;;;;;53.03;29.07;;;;;;;-3.50;89.77;99113.34;5114365;28;20428;-68
2023/01/18 07:56:26;;;;;;;68.00;29.27;;;;;;;-3.51;90.62;99119.50;5114778;28;20428;-68
2023/01/18 07:58:52;;;;;;;51.23;27.43;;;;;;;-3.48;89.23;99121.97;5115198;28;20563;-67
2023/01/18 08:01:20;;;;;;;59.20;28.37;;;;;;;-3.44;91.13;99125.34;5114247;28;20923;-67
2023/01/18 08:03:48;;;;;;;58.67;27.87;;;;;;;-3.41;89.85;99127.81;5114213;28;20425;-68
2023/01/18 08:06:19;;;;;;;63.60;27.27;;;;;;;-3.37;89.63;99132.03;5114709;28;20425;-68
2023/01/18 08:08:46;;;;;;;57.30;29.30;;;;;;;-3.44;90.92;99135.81;5114278;28;20456;-67
2023/01/18 08:11:12;;;;;;;58.73;27.13;;;;;;;-3.44;88.88;99134.03;5114015;28;20502;-67
2023/01/18 08:13:40;;;;;;;53.03;27.50;;;;;;;-3.39;90.38;99133.00;5114362;28;20452;-67
2023/01/18 08:16:09;;;;;;;52.33;27.70;;;;;;;-3.40;89.47;99145.22;5114229;28;20225;-67
2023/01/18 08:18:36;;;;;;;57.90;28.43;;;;;;;-3.32;90.39;99140.53;5113261;28;20454;-67
2023/01/18 08:21:03;;;;;;;56.57;29.40;;;;;;;-3.30;89.05;99136.09;5113927;28;20197;-67
2023/01/18 08:23:29;;;;;;;50.87;29.13;;;;;;;-3.25;89.30;99146.38;5113816;28;20455;-68
2023/01/18 08:25:59;;;;;;;51.33;28.37;;;;;;;-3.16;89.79;99148.63;5114375;28;20272;-68
2023/01/18 08:28:26;;;;;;;56.73;29.10;;;;;;;-3.07;89.74;99160.47;5114299;28;20444;-67
2023/01/18 08:30:52;;;;;;;56.67;29.27;;;;;;;-3.05;90.59;99164.72;5113949;28;20556;-67
2023/01/18 08:33:19;;;;;;;53.00;29.77;;;;;;;-3.00;90.72;99157.53;5114058;28;20429;-67
2023/01/18 08:35:46;;;;;;;53.00;30.57;;;;;;;-2.97;90.06;99171.41;5114243;28;20434;-67
2023/01/18 08:38:15;;;;;;;44.90;28.60;;;;;;;-2.90;90.16;99168.47;5114105;28;20803;-67
2023/01/18 08:40:41;;;;;;;61.07;31.53;;;;;;;-2.88;90.69;99179.72;5113668;28;20508;-67
2023/01/18 08:43:09;;;;;;;58.13;29.70;;;;;;;-2.83;90.34;99182.16;5113682;28;20468;-67
2023/01/18 08:45:36;;;;;;;56.70;30.77;;;;;;;-2.79;90.61;99187.19;5113656;28;20435;-67
2023/01/18 08:48:08;;;;;;;58.63;30.63;;;;;;;-2.72;89.86;99195.66;5113732;28;20980;-67
2023/01/18 08:50:35;;;;;;;62.57;32.97;;;;;;;-2.70;90.25;99193.84;5113789;28;20945;-67
2023/01/18 08:53:02;;;;;;;69.10;32.50;;;;;;;-2.64;89.75;99190.94;5114119;28;20430;-67
2023/01/18 08:55:29;;;;;;;59.63;31.20;;;;;;;-2.60;89.87;99200.38;5113577;28;20512;-67
2023/01/18 08:57:57;;;;;;;66.83;32.13;;;;;;;-2.60;89.99;99197.75;5113440;28;20525;-67
2023/01/18 09:00:27;;;;;;;68.33;32.47;;;;;;;-2.62;90.09;99206.59;5113728;28;20189;-67
2023/01/18 09:02:53;;;;;;;59.13;31.30;;;;;;;-2.53;90.29;99206.22;5113761;28;20501;-67
2023/01/18 09:05:20;;;;;;;59.23;33.47;;;;;;;-2.49;89.62;99214.78;5113996;28;20603;-67
2023/01/18 09:07:47;;;;;;;67.33;34.43;;;;;;;-2.44;89.34;99216.31;5113352;28;20445;-67
2023/01/18 09:10:13;;;;;;;58.33;32.77;;;;;;;-2.33;89.36;99214.97;5113352;28;20459;-67
2023/01/18 09:12:40;;;;;;;68.50;33.63;;;;;;;-2.27;89.65;99220.81;5113334;28;20431;-67
2023/01/18 09:15:07;;;;;;;70.80;34.33;;;;;;;-2.19;89.99;99221.31;5113336;28;20425;-67
2023/01/18 09:17:33;;;;;;;81.57;35.80;;;;;;;-2.11;90.11;99228.00;5113552;28;20541;-67
2023/01/18 09:20:00;;;;;;;72.83;37.63;;;;;;;-2.02;90.05;99232.81;5113894;28;20425;-67
2023/01/18 09:22:26;;;;;;;64.17;35.43;;;;;;;-1.92;89.74;99239.34;5113144;28;20254;-67
2023/01/18 09:24:52;;;;;;;76.17;39.47;;;;;;;-1.87;89.74;99245.25;5113610;28;20174;-67
2023/01/18 09:27:19;;;;;;;68.03;36.70;;;;;;;-1.78;90.10;99233.50;5113203;28;20574;-67
2023/01/18 09:29:51;;;;;;;75.90;39.47;;;;;;;-1.69;90.08;99238.31;5115012;28;20193;-67
2023/01/18 09:32:18;;;;;;;72.63;40.50;;;;;;;-1.56;89.99;99243.84;5117132;28;20193;-67
2023/01/18 09:34:49;;;;;;;70.63;37.97;;;;;;;-1.47;89.37;99248.69;5117299;28;20576;-67
2023/01/18 09:37:17;;;;;;;72.83;39.27;;;;;;;-1.42;89.43;99246.69;5117557;28;20597;-68
2023/01/18 09:39:44;;;;;;;74.53;39.03;;;;;;;-1.36;89.94;99243.78;5117232;28;20193;-68
2023/01/18 09:42:24;;;;;;;73.77;39.10;;;;;;;-1.29;90.01;99247.81;5117270;28;20520;-68
2023/01/18 09:44:57;;;;;;;73.33;40.07;;;;;;;-1.15;89.37;99251.56;5117241;28;20175;-68
2023/01/18 09:47:27;;;;;;;75.67;39.17;;;;;;;-1.07;89.16;99252.06;5116831;28;20205;-68
2023/01/18 09:49:55;;;;;;;76.23;40.50;;;;;;;-0.99;88.91;99262.19;5116850;28;20188;-68
2023/01/18 09:53:08;;;;;;;93.07;40.20;;;;;;;-0.89;89.00;99263.44;5116631;28;20317;-68
2023/01/18 09:55:52;;;;;;;101.03;41.37;;;;;;;-0.88;88.32;99260.75;5116664;28;20567;-68
2023/01/18 09:58:40;;;;;;;82.00;40.93;;;;;;;-0.73;89.09;99267.03;5116605;28;20693;-68
2023/01/18 10:01:15;;;;;;;77.93;41.97;;;;;;;-0.66;87.34;99272.84;5116845;28;20182;-68
2023/01/18 10:03:59;;;;;;;73.67;40.47;;;;;;;-0.67;87.54;99277.25;5116623;28;20222;-68
2023/01/18 10:07:00;;;;;;;83.80;40.73;;;;;;;-0.57;87.03;99272.38;5116664;28;20697;-68
2023/01/18 10:09:32;;;;;;;71.70;38.40;;;;;;;-0.47;87.41;99281.50;5116902;28;20180;-68
2023/01/18 10:12:03;;;;;;;77.17;39.03;;;;;;;-0.37;86.15;99276.63;5116774;28;20196;-68
2023/01/18 10:15:01;;;;;;;73.33;37.83;;;;;;;-0.32;85.55;99277.25;5116816;28;20279;-68
2023/01/18 10:17:37;;;;;;;65.37;37.13;;;;;;;-0.23;86.19;99289.94;5116167;28;20201;-69
2023/01/18 10:20:35;;;;;;;61.30;35.87;;;;;;;-0.15;86.58;99284.28;5116269;28;20188;-68
2023/01/18 10:23:11;;;;;;;74.27;38.03;;;;;;;-0.09;84.77;99283.13;5116113;28;20201;-68
2023/01/18 10:25:43;;;;;;;68.80;37.57;;;;;;;0.00;84.63;99282.66;5116307;28;20514;-68
2023/01/18 10:28:25;;;;;;;67.07;37.50;;;;;;;0.06;84.54;99286.75;5116039;28;20207;-69
2023/01/18 10:30:57;;;;;;;69.90;37.47;;;;;;;0.17;84.66;99285.25;5116398;28;20199;-69
2023/01/18 10:33:31;;;;;;;58.83;36.33;;;;;;;0.28;83.04;99284.69;5115745;28;20174;-69
2023/01/18 10:36:05;;;;;;;63.33;35.47;;;;;;;0.34;83.92;99292.25;5116109;28;20187;-69
2023/01/18 10:38:31;;;;;;;60.67;33.90;;;;;;;0.38;82.42;99295.56;5115944;28;20227;-68
2023/01/18 10:41:00;;;;;;;56.07;35.20;;;;;;;0.47;82.29;99294.22;5115028;28;20674;-68
2023/01/18 10:43:28;;;;;;;66.93;33.57;;;;;;;0.57;81.32;99288.38;5115663;28;20239;-68
2023/01/18 10:45:55;;;;;;;64.20;32.83;;;;;;;0.66;81.34;99292.31;5115643;28;20582;-68
2023/01/18 10:48:32;;;;;;;64.57;32.53;;;;;;;0.71;81.49;99295.53;5116065;28;20378;-68
2023/01/18 10:51:02;;;;;;;61.47;31.40;;;;;;;0.74;80.78;99297.16;5115757;28;20554;-68
2023/01/18 10:53:31;;;;;;;60.17;32.00;;;;;;;0.78;80.21;99301.31;5115672;28;20215;-68
2023/01/18 10:56:20;;;;;;;59.50;30.93;;;;;;;0.79;79.86;99303.88;5115510;28;20533;-68
2023/01/18 10:58:49;;;;;;;48.07;30.43;;;;;;;0.89;79.22;99298.97;5115587;28;20213;-68
2023/01/18 11:01:21;;;;;;;58.67;27.83;;;;;;;0.96;78.43;99310.88;5115692;28;20569;-68
2023/01/18 11:03:51;;;;;;;47.70;28.77;;;;;;;1.16;78.67;99308.91;5115653;28;20239;-68
2023/01/18 11:06:19;;;;;;;47.57;29.53;;;;;;;1.22;78.65;99308.53;5115668;28;20188;-68
2023/01/18 11:08:48;;;;;;;54.33;29.97;;;;;;;1.28;78.49;99301.13;5115213;28;20201;-68
2023/01/18 11:14:33;;;;;;;45.33;26.27;;;;;;;1.51;77.47;99312.19;5032523;28;20662;-68
2023/01/18 11:17:09;;;;;;;49.73;27.60;;;;;;;1.47;76.86;99305.38;5032380;28;20202;-68
2023/01/18 11:19:40;;;;;;;44.23;25.83;;;;;;;1.45;75.73;99310.72;5078975;28;20292;-69
2023/01/18 11:22:12;;;;;;;39.30;25.50;;;;;;;1.52;75.59;99307.75;5115520;28;20180;-68
2023/01/18 11:24:38;;;;;;;46.97;26.17;;;;;;;1.61;75.39;99313.34;5115048;28;20196;-69
2023/01/18 11:27:19;;;;;;;53.53;24.50;;;;;;;1.76;75.04;99310.75;5114748;28;20189;-68
2023/01/18 11:29:45;;;;;;;44.23;24.37;;;;;;;1.81;74.53;99309.53;5115185;28;20204;-68
2023/01/18 11:32:29;;;;;;;40.80;24.23;;;;;;;1.88;74.28;99310.03;5115018;28;20205;-69
2023/01/18 11:34:58;;;;;;;38.93;23.13;;;;;;;1.97;73.99;99316.56;5114709;28;20261;-69
2023/01/18 11:37:30;;;;;;;45.17;23.97;;;;;;;1.98;73.97;99318.25;5114577;28;20212;-68
2023/01/18 11:39:56;;;;;;;39.30;23.67;;;;;;;2.10;73.72;99320.16;5114917;28;20638;-69
2023/01/18 11:42:30;;;;;;;42.83;23.03;;;;;;;2.21;73.50;99314.25;5114635;28;20701;-69
2023/01/18 11:45:27;;;;;;;41.50;21.13;;;;;;;2.27;73.10;99316.50;5115127;28;20535;-70
2023/01/18 11:48:29;;;;;;;49.27;24.07;;;;;;;2.35;72.49;99316.91;5114576;28;20692;-70
2023/01/18 11:51:07;;;;;;;35.83;21.70;;;;;;;2.45;72.23;99314.53;5114357;28;20232;-69
2023/01/18 11:53:47;;;;;;;34.47;20.60;;;;;;;2.43;71.27;99306.69;5095779;28;20196;-69
2023/01/18 11:56:29;;;;;;;33.27;20.37;;;;;;;2.51;70.80;99315.03;5114608;28;20626;-69
2023/01/18 11:58:56;;;;;;;39.30;20.47;;;;;;;2.52;71.30;99313.22;5114798;28;20215;-69
2023/01/18 12:01:42;;;;;;;29.80;17.93;;;;;;;2.48;70.59;99311.69;5114568;28;20178;-69
2023/01/18 12:04:21;;;;;;;32.57;18.97;;;;;;;2.55;70.50;99315.66;5114836;28;20181;-69